sensor_id;sensor_type;location;lat;lon;timestamp;temperature;humidity
55151;DHT22;41041;43.162;20.538;2022-08-05T00:01:28;512.90;1945.60
55151;DHT22;41041;43.162;20.538;2022-08-05T00:03:54;512.90;1945.60
55151;DHT22;41041;43.162;20.538;2022-08-05T00:06:20;512.90;1945.60
55151;DHT22;41041;43.162;20.538;2022-08-05T00:08:45;512.90;1945.60
55151;DHT22;41041;43.162;20.538;2022-08-05T00:11:13;512.80;1945.60
55151;DHT22;41041;43.162;20.538;2022-08-05T00:13:41;512.90;1945.60
55151;DHT22;41041;43.162;20.538;2022-08-05T00:16:09;512.80;1945.60
55151;DHT22;41041;43.162;20.538;2022-08-05T00:21:57;512.80;1945.60
55151;DHT22;41041;43.162;20.538;2022-08-05T00:24:23;512.80;1945.60
55151;DHT22;41041;43.162;20.538;2022-08-05T00:26:49;512.80;1945.60
55151;DHT22;41041;43.162;20.538;2022-08-05T00:29:15;512.90;1945.60
55151;DHT22;41041;43.162;20.538;2022-08-05T00:31:41;512.80;1945.60
55151;DHT22;41041;43.162;20.538;2022-08-05T00:34:07;512.70;1971.20
55151;DHT22;41041;43.162;20.538;2022-08-05T00:39:55;512.70;1971.20
55151;DHT22;41041;43.162;20.538;2022-08-05T00:42:34;512.70;1971.20
55151;DHT22;41041;43.162;20.538;2022-08-05T00:45:02;512.60;1971.20
55151;DHT22;41041;43.162;20.538;2022-08-05T00:50:50;512.50;1996.80
55151;DHT22;41041;43.162;20.538;2022-08-05T00:53:19;512.00;2022.40
55151;DHT22;41041;43.162;20.538;2022-08-05T00:55:45;512.10;2022.40
55151;DHT22;41041;43.162;20.538;2022-08-05T00:58:12;512.20;2022.40
55151;DHT22;41041;43.162;20.538;2022-08-05T01:00:39;487.20;2048.00
55151;DHT22;41041;43.162;20.538;2022-08-05T01:06:27;512.10;2048.00
55151;DHT22;41041;43.162;20.538;2022-08-05T01:08:53;512.20;2022.40
55151;DHT22;41041;43.162;20.538;2022-08-05T01:11:22;512.30;2022.40
55151;DHT22;41041;43.162;20.538;2022-08-05T01:16:48;512.30;2022.40
55151;DHT22;41041;43.162;20.538;2022-08-05T01:19:38;512.10;2022.40
55151;DHT22;41041;43.162;20.538;2022-08-05T01:25:37;512.00;2048.00
55151;DHT22;41041;43.162;20.538;2022-08-05T01:28:25;512.10;2022.40
55151;DHT22;41041;43.162;20.538;2022-08-05T01:30:56;512.30;2022.40
55151;DHT22;41041;43.162;20.538;2022-08-05T01:33:31;512.10;2022.40
55151;DHT22;41041;43.162;20.538;2022-08-05T01:35:58;487.30;1996.80
55151;DHT22;41041;43.162;20.538;2022-08-05T01:38:26;487.30;2022.40
55151;DHT22;41041;43.162;20.538;2022-08-05T01:40:56;487.10;2048.00
55151;DHT22;41041;43.162;20.538;2022-08-05T01:43:23;487.20;2022.40
55151;DHT22;41041;43.162;20.538;2022-08-05T01:45:53;487.20;2022.40
55151;DHT22;41041;43.162;20.538;2022-08-05T01:51:42;487.20;2022.40
55151;DHT22;41041;43.162;20.538;2022-08-05T01:57:32;512.00;1996.80
55151;DHT22;41041;43.162;20.538;2022-08-05T02:00:01;512.00;1996.80
55151;DHT22;41041;43.162;20.538;2022-08-05T02:02:30;487.20;2022.40
55151;DHT22;41041;43.162;20.538;2022-08-05T02:08:24;487.20;2022.40
55151;DHT22;41041;43.162;20.538;2022-08-05T02:14:16;487.30;2022.40
55151;DHT22;41041;43.162;20.538;2022-08-05T02:20:26;487.20;2048.00
55151;DHT22;41041;43.162;20.538;2022-08-05T02:22:58;487.20;2022.40
55151;DHT22;41041;43.162;20.538;2022-08-05T02:25:28;487.20;2022.40
55151;DHT22;41041;43.162;20.538;2022-08-05T02:27:55;487.00;2048.00
55151;DHT22;41041;43.162;20.538;2022-08-05T02:30:23;487.00;2048.00
55151;DHT22;41041;43.162;20.538;2022-08-05T02:32:53;487.00;2022.40
55151;DHT22;41041;43.162;20.538;2022-08-05T02:35:23;486.80;2048.00
55151;DHT22;41041;43.162;20.538;2022-08-05T02:37:53;486.90;2048.00
55151;DHT22;41041;43.162;20.538;2022-08-05T02:40:21;487.00;2048.00
55151;DHT22;41041;43.162;20.538;2022-08-05T02:42:49;486.60;2073.60
55151;DHT22;41041;43.162;20.538;2022-08-05T02:45:16;486.50;2099.20
55151;DHT22;41041;43.162;20.538;2022-08-05T02:47:44;486.70;2073.60
55151;DHT22;41041;43.162;20.538;2022-08-05T02:50:11;486.70;2073.60
55151;DHT22;41041;43.162;20.538;2022-08-05T02:52:41;486.80;2048.00
55151;DHT22;41041;43.162;20.538;2022-08-05T02:55:09;486.70;2073.60
55151;DHT22;41041;43.162;20.538;2022-08-05T02:57:38;486.80;2073.60
55151;DHT22;41041;43.162;20.538;2022-08-05T03:03:28;486.80;2073.60
55151;DHT22;41041;43.162;20.538;2022-08-05T03:05:54;486.80;2073.60
55151;DHT22;41041;43.162;20.538;2022-08-05T03:08:20;486.80;2073.60
55151;DHT22;41041;43.162;20.538;2022-08-05T03:10:47;486.80;2048.00
55151;DHT22;41041;43.162;20.538;2022-08-05T03:13:14;486.70;2073.60
55151;DHT22;41041;43.162;20.538;2022-08-05T03:15:44;486.50;2099.20
55151;DHT22;41041;43.162;20.538;2022-08-05T03:18:10;486.40;2099.20
55151;DHT22;41041;43.162;20.538;2022-08-05T03:23:59;486.50;2099.20
55151;DHT22;41041;43.162;20.538;2022-08-05T03:26:25;486.40;2099.20
55151;DHT22;41041;43.162;20.538;2022-08-05T03:28:54;461.70;2099.20
55151;DHT22;41041;43.162;20.538;2022-08-05T03:31:21;461.70;2099.20
55151;DHT22;41041;43.162;20.538;2022-08-05T03:33:47;486.40;2099.20
55151;DHT22;41041;43.162;20.538;2022-08-05T03:36:12;486.40;2073.60
55151;DHT22;41041;43.162;20.538;2022-08-05T03:42:00;461.70;2099.20
55151;DHT22;41041;43.162;20.538;2022-08-05T03:44:26;486.40;2073.60
55151;DHT22;41041;43.162;20.538;2022-08-05T03:46:52;486.50;2073.60
55151;DHT22;41041;43.162;20.538;2022-08-05T03:49:18;486.40;2073.60
55151;DHT22;41041;43.162;20.538;2022-08-05T03:55:11;486.40;2073.60
55151;DHT22;41041;43.162;20.538;2022-08-05T03:57:39;486.40;2099.20
55151;DHT22;41041;43.162;20.538;2022-08-05T04:00:13;486.40;2073.60
55151;DHT22;41041;43.162;20.538;2022-08-05T04:05:53;486.40;2073.60
55151;DHT22;41041;43.162;20.538;2022-08-05T04:08:19;486.40;2099.20
55151;DHT22;41041;43.162;20.538;2022-08-05T04:18:06;486.40;2099.20
55151;DHT22;41041;43.162;20.538;2022-08-05T04:20:35;486.40;2099.20
55151;DHT22;41041;43.162;20.538;2022-08-05T04:26:23;486.50;2099.20
55151;DHT22;41041;43.162;20.538;2022-08-05T04:32:10;486.50;2099.20
55151;DHT22;41041;43.162;20.538;2022-08-05T04:34:37;486.50;2124.80
55151;DHT22;41041;43.162;20.538;2022-08-05T04:37:03;486.40;2124.80
55151;DHT22;41041;43.162;20.538;2022-08-05T04:39:30;486.50;2124.80
55151;DHT22;41041;43.162;20.538;2022-08-05T04:41:56;486.50;2124.80
55151;DHT22;41041;43.162;20.538;2022-08-05T04:44:21;486.40;2150.40
55151;DHT22;41041;43.162;20.538;2022-08-05T04:46:47;486.40;2124.80
55151;DHT22;41041;43.162;20.538;2022-08-05T04:49:13;486.40;2150.40
55151;DHT22;41041;43.162;20.538;2022-08-05T05:01:55;486.60;2124.80
55151;DHT22;41041;43.162;20.538;2022-08-05T05:11:06;486.60;2150.40
55151;DHT22;41041;43.162;20.538;2022-08-05T05:13:32;486.60;2150.40
55151;DHT22;41041;43.162;20.538;2022-08-05T05:15:58;486.60;2150.40
55151;DHT22;41041;43.162;20.538;2022-08-05T05:18:37;486.60;2150.40
55151;DHT22;41041;43.162;20.538;2022-08-05T05:21:03;486.60;2176.00
55151;DHT22;41041;43.162;20.538;2022-08-05T05:23:31;486.60;2176.00
55151;DHT22;41041;43.162;20.538;2022-08-05T05:29:19;486.50;2201.60
55151;DHT22;41041;43.162;20.538;2022-08-05T05:31:45;486.70;2201.60
55151;DHT22;41041;43.162;20.538;2022-08-05T05:34:14;486.80;2201.60
55151;DHT22;41041;43.162;20.538;2022-08-05T05:36:40;486.90;2176.00
55151;DHT22;41041;43.162;20.538;2022-08-05T05:39:06;487.00;2176.00
55151;DHT22;41041;43.162;20.538;2022-08-05T05:41:34;487.10;2150.40
55151;DHT22;41041;43.162;20.538;2022-08-05T05:44:00;487.10;2150.40
55151;DHT22;41041;43.162;20.538;2022-08-05T05:46:26;487.10;2150.40
55151;DHT22;41041;43.162;20.538;2022-08-05T05:48:52;487.20;2176.00
55151;DHT22;41041;43.162;20.538;2022-08-05T05:51:29;487.20;2176.00
55151;DHT22;41041;43.162;20.538;2022-08-05T05:53:57;512.30;2150.40
55151;DHT22;41041;43.162;20.538;2022-08-05T05:56:24;512.10;2150.40
55151;DHT22;41041;43.162;20.538;2022-08-05T05:58:52;512.10;2150.40
55151;DHT22;41041;43.162;20.538;2022-08-05T06:01:20;512.40;2176.00
55151;DHT22;41041;43.162;20.538;2022-08-05T06:03:46;512.60;2124.80
55151;DHT22;41041;43.162;20.538;2022-08-05T06:06:14;512.80;2124.80
55151;DHT22;41041;43.162;20.538;2022-08-05T06:08:40;512.70;2150.40
55151;DHT22;41041;43.162;20.538;2022-08-05T06:11:09;512.90;2099.20
55151;DHT22;41041;43.162;20.538;2022-08-05T06:13:35;512.90;2099.20
55151;DHT22;41041;43.162;20.538;2022-08-05T06:21:04;538.10;2048.00
55151;DHT22;41041;43.162;20.538;2022-08-05T06:25:56;538.20;2048.00
55151;DHT22;41041;43.162;20.538;2022-08-05T06:28:25;537.90;2048.00
55151;DHT22;41041;43.162;20.538;2022-08-05T06:48:08;563.50;1996.80
55151;DHT22;41041;43.162;20.538;2022-08-05T06:50:34;563.40;1996.80
55151;DHT22;41041;43.162;20.538;2022-08-05T06:53:00;563.40;1996.80
55151;DHT22;41041;43.162;20.538;2022-08-05T06:55:26;563.80;1945.60
55151;DHT22;41041;43.162;20.538;2022-08-05T06:58:09;563.70;1971.20
55151;DHT22;41041;43.162;20.538;2022-08-05T07:00:35;563.60;1971.20
55151;DHT22;41041;43.162;20.538;2022-08-05T07:06:06;563.90;1920.00
55151;DHT22;41041;43.162;20.538;2022-08-05T07:08:32;564.00;1894.40
55151;DHT22;41041;43.162;20.538;2022-08-05T07:11:15;564.10;1868.80
55151;DHT22;41041;43.162;20.538;2022-08-05T07:13:42;588.80;1868.80
55151;DHT22;41041;43.162;20.538;2022-08-05T07:16:27;589.20;1843.20
55151;DHT22;41041;43.162;20.538;2022-08-05T07:19:12;589.00;1868.80
55151;DHT22;41041;43.162;20.538;2022-08-05T07:21:38;589.10;1868.80
55151;DHT22;41041;43.162;20.538;2022-08-05T07:24:04;589.20;1843.20
55151;DHT22;41041;43.162;20.538;2022-08-05T07:26:30;589.30;1843.20
55151;DHT22;41041;43.162;20.538;2022-08-05T07:28:55;589.50;1817.60
55151;DHT22;41041;43.162;20.538;2022-08-05T07:31:21;589.50;1792.00
55151;DHT22;41041;43.162;20.538;2022-08-05T07:33:47;589.50;1792.00
55151;DHT22;41041;43.162;20.538;2022-08-05T07:36:13;589.60;1766.40
55151;DHT22;41041;43.162;20.538;2022-08-05T07:38:39;589.60;1766.40
55151;DHT22;41041;43.162;20.538;2022-08-05T07:41:08;589.70;1766.40
55151;DHT22;41041;43.162;20.538;2022-08-05T07:43:34;589.70;1766.40
55151;DHT22;41041;43.162;20.538;2022-08-05T07:46:03;614.40;1792.00
55151;DHT22;41041;43.162;20.538;2022-08-05T07:48:35;614.60;1715.20
55151;DHT22;41041;43.162;20.538;2022-08-05T07:51:01;614.60;1689.60
55151;DHT22;41041;43.162;20.538;2022-08-05T07:53:32;614.70;1715.20
55151;DHT22;41041;43.162;20.538;2022-08-05T08:06:29;640.10;1664.00
55151;DHT22;41041;43.162;20.538;2022-08-05T08:08:55;640.10;1587.20
55151;DHT22;41041;43.162;20.538;2022-08-05T08:11:24;640.30;1587.20
55151;DHT22;41041;43.162;20.538;2022-08-05T08:13:50;640.30;1561.60
55151;DHT22;41041;43.162;20.538;2022-08-05T08:16:21;640.20;1587.20
55151;DHT22;41041;43.162;20.538;2022-08-05T08:18:50;640.10;1587.20
55151;DHT22;41041;43.162;20.538;2022-08-05T08:21:19;640.10;1612.80
55151;DHT22;41041;43.162;20.538;2022-08-05T08:23:48;640.30;1587.20
55151;DHT22;41041;43.162;20.538;2022-08-05T08:26:14;640.60;1587.20
55151;DHT22;41041;43.162;20.538;2022-08-05T08:28:49;640.50;1561.60
55151;DHT22;41041;43.162;20.538;2022-08-05T08:31:14;640.90;1536.00
55151;DHT22;41041;43.162;20.538;2022-08-05T08:33:40;640.90;1561.60
55151;DHT22;41041;43.162;20.538;2022-08-05T08:36:09;640.80;1561.60
55151;DHT22;41041;43.162;20.538;2022-08-05T08:38:44;640.90;1510.40
55151;DHT22;41041;43.162;20.538;2022-08-05T08:41:20;665.80;1561.60
55151;DHT22;41041;43.162;20.538;2022-08-05T08:43:52;665.60;1587.20
55151;DHT22;41041;43.162;20.538;2022-08-05T08:46:27;665.60;1536.00
55151;DHT22;41041;43.162;20.538;2022-08-05T08:49:13;665.80;1510.40
55151;DHT22;41041;43.162;20.538;2022-08-05T08:51:53;665.90;1510.40
55151;DHT22;41041;43.162;20.538;2022-08-05T08:54:24;666.00;1484.80
55151;DHT22;41041;43.162;20.538;2022-08-05T08:56:50;666.10;1484.80
55151;DHT22;41041;43.162;20.538;2022-08-05T08:59:19;666.10;1484.80
55151;DHT22;41041;43.162;20.538;2022-08-05T09:01:46;666.20;1484.80
55151;DHT22;41041;43.162;20.538;2022-08-05T09:04:12;666.40;1484.80
55151;DHT22;41041;43.162;20.538;2022-08-05T09:06:39;666.50;1459.20
55151;DHT22;41041;43.162;20.538;2022-08-05T09:09:05;691.20;1459.20
55151;DHT22;41041;43.162;20.538;2022-08-05T09:11:40;691.20;1433.60
55151;DHT22;41041;43.162;20.538;2022-08-05T09:14:06;691.40;1382.40
55151;DHT22;41041;43.162;20.538;2022-08-05T09:16:32;691.70;1356.80
55151;DHT22;41041;43.162;20.538;2022-08-05T09:19:00;691.60;1356.80
55151;DHT22;41041;43.162;20.538;2022-08-05T09:21:26;691.70;1305.60
55151;DHT22;41041;43.162;20.538;2022-08-05T09:24:05;692.00;1305.60
55151;DHT22;41041;43.162;20.538;2022-08-05T09:26:34;692.00;1280.00
55151;DHT22;41041;43.162;20.538;2022-08-05T09:29:04;691.90;1280.00
55151;DHT22;41041;43.162;20.538;2022-08-05T09:31:31;691.90;1254.40
55151;DHT22;41041;43.162;20.538;2022-08-05T09:34:00;692.10;1254.40
55151;DHT22;41041;43.162;20.538;2022-08-05T09:36:46;692.00;1254.40
55151;DHT22;41041;43.162;20.538;2022-08-05T09:39:18;716.80;1305.60
55151;DHT22;41041;43.162;20.538;2022-08-05T09:42:02;717.10;1280.00
55151;DHT22;41041;43.162;20.538;2022-08-05T09:44:52;717.20;1254.40
55151;DHT22;41041;43.162;20.538;2022-08-05T09:47:22;717.30;1254.40
55151;DHT22;41041;43.162;20.538;2022-08-05T09:49:55;717.30;1228.80
55151;DHT22;41041;43.162;20.538;2022-08-05T09:52:31;717.40;1305.60
55151;DHT22;41041;43.162;20.538;2022-08-05T09:55:15;717.40;1254.40
55151;DHT22;41041;43.162;20.538;2022-08-05T09:57:44;717.40;1280.00
55151;DHT22;41041;43.162;20.538;2022-08-05T10:00:18;717.40;1254.40
55151;DHT22;41041;43.162;20.538;2022-08-05T10:02:47;717.60;1280.00
55151;DHT22;41041;43.162;20.538;2022-08-05T10:05:18;717.70;1203.20
55151;DHT22;41041;43.162;20.538;2022-08-05T10:07:55;717.60;1228.80
55151;DHT22;41041;43.162;20.538;2022-08-05T10:13:46;717.60;1203.20
55151;DHT22;41041;43.162;20.538;2022-08-05T10:16:35;717.60;1177.60
55151;DHT22;41041;43.162;20.538;2022-08-05T10:19:03;717.70;1203.20
55151;DHT22;41041;43.162;20.538;2022-08-05T10:21:29;717.70;1177.60
55151;DHT22;41041;43.162;20.538;2022-08-05T10:23:55;717.70;1254.40
55151;DHT22;41041;43.162;20.538;2022-08-05T10:26:22;717.70;1203.20
55151;DHT22;41041;43.162;20.538;2022-08-05T10:28:47;742.40;1228.80
55151;DHT22;41041;43.162;20.538;2022-08-05T10:31:14;717.70;1228.80
55151;DHT22;41041;43.162;20.538;2022-08-05T10:33:41;742.40;1203.20
55151;DHT22;41041;43.162;20.538;2022-08-05T10:36:07;742.40;1203.20
55151;DHT22;41041;43.162;20.538;2022-08-05T10:38:35;742.40;1177.60
55151;DHT22;41041;43.162;20.538;2022-08-05T10:41:17;742.50;1177.60
55151;DHT22;41041;43.162;20.538;2022-08-05T10:43:50;742.50;1228.80
55151;DHT22;41041;43.162;20.538;2022-08-05T10:46:19;742.40;1203.20
55151;DHT22;41041;43.162;20.538;2022-08-05T10:48:49;742.50;1203.20
55151;DHT22;41041;43.162;20.538;2022-08-05T10:51:20;742.70;1203.20
55151;DHT22;41041;43.162;20.538;2022-08-05T10:56:17;742.80;1177.60
55151;DHT22;41041;43.162;20.538;2022-08-05T11:01:38;742.90;1203.20
55151;DHT22;41041;43.162;20.538;2022-08-05T11:04:08;743.00;1228.80
55151;DHT22;41041;43.162;20.538;2022-08-05T11:09:24;742.90;1177.60
55151;DHT22;41041;43.162;20.538;2022-08-05T11:11:52;742.80;1280.00
55151;DHT22;41041;43.162;20.538;2022-08-05T11:14:31;742.70;1280.00
55151;DHT22;41041;43.162;20.538;2022-08-05T11:19:55;742.60;1228.80
55151;DHT22;41041;43.162;20.538;2022-08-05T11:22:44;742.60;1203.20
55151;DHT22;41041;43.162;20.538;2022-08-05T11:36:48;743.10;1126.40
55151;DHT22;41041;43.162;20.538;2022-08-05T11:42:04;743.10;1177.60
55151;DHT22;41041;43.162;20.538;2022-08-05T11:44:37;743.20;1126.40
55151;DHT22;41041;43.162;20.538;2022-08-05T11:47:04;743.10;1126.40
55151;DHT22;41041;43.162;20.538;2022-08-05T11:49:30;743.20;1100.80
55151;DHT22;41041;43.162;20.538;2022-08-05T11:51:56;743.20;1152.00
55151;DHT22;41041;43.162;20.538;2022-08-05T11:54:28;743.00;1203.20
55151;DHT22;41041;43.162;20.538;2022-08-05T11:56:56;743.00;1152.00
55151;DHT22;41041;43.162;20.538;2022-08-05T11:59:24;743.00;1177.60
55151;DHT22;41041;43.162;20.538;2022-08-05T12:02:02;743.10;1100.80
55151;DHT22;41041;43.162;20.538;2022-08-05T12:04:52;768.00;1152.00
55151;DHT22;41041;43.162;20.538;2022-08-05T12:07:18;768.10;1100.80
55151;DHT22;41041;43.162;20.538;2022-08-05T12:13:14;768.40;1126.40
55151;DHT22;41041;43.162;20.538;2022-08-05T12:18:42;768.10;1177.60
55151;DHT22;41041;43.162;20.538;2022-08-05T12:21:13;768.00;1152.00
55151;DHT22;41041;43.162;20.538;2022-08-05T12:23:39;768.00;1100.80
55151;DHT22;41041;43.162;20.538;2022-08-05T12:29:27;768.00;1177.60
55151;DHT22;41041;43.162;20.538;2022-08-05T12:31:57;768.10;1126.40
55151;DHT22;41041;43.162;20.538;2022-08-05T12:34:28;768.50;1126.40
55151;DHT22;41041;43.162;20.538;2022-08-05T12:36:57;768.50;1126.40
55151;DHT22;41041;43.162;20.538;2022-08-05T12:39:24;768.50;1100.80
55151;DHT22;41041;43.162;20.538;2022-08-05T12:41:50;768.60;1100.80
55151;DHT22;41041;43.162;20.538;2022-08-05T12:44:17;768.50;1075.20
55151;DHT22;41041;43.162;20.538;2022-08-05T12:46:52;793.60;1100.80
55151;DHT22;41041;43.162;20.538;2022-08-05T12:49:18;794.40;1049.60
55151;DHT22;41041;43.162;20.538;2022-08-05T12:51:54;819.30;1024.00
55151;DHT22;41041;43.162;20.538;2022-08-05T12:54:29;819.40;1024.00
55151;DHT22;41041;43.162;20.538;2022-08-05T12:57:08;819.50;972.80
55151;DHT22;41041;43.162;20.538;2022-08-05T12:59:48;819.50;1024.00
55151;DHT22;41041;43.162;20.538;2022-08-05T13:02:23;819.60;1024.00
55151;DHT22;41041;43.162;20.538;2022-08-05T13:08:11;845.00;998.40
55151;DHT22;41041;43.162;20.538;2022-08-05T13:10:41;845.00;972.80
55151;DHT22;41041;43.162;20.538;2022-08-05T13:13:07;844.80;972.80
55151;DHT22;41041;43.162;20.538;2022-08-05T13:15:34;845.10;998.40
55151;DHT22;41041;43.162;20.538;2022-08-05T13:18:00;845.10;998.40
55151;DHT22;41041;43.162;20.538;2022-08-05T13:20:34;845.10;947.20
55151;DHT22;41041;43.162;20.538;2022-08-05T13:23:00;845.00;972.80
55151;DHT22;41041;43.162;20.538;2022-08-05T13:25:26;845.00;972.80
55151;DHT22;41041;43.162;20.538;2022-08-05T13:27:55;844.80;1024.00
55151;DHT22;41041;43.162;20.538;2022-08-05T13:30:22;820.00;972.80
55151;DHT22;41041;43.162;20.538;2022-08-05T13:32:51;820.10;998.40
55151;DHT22;41041;43.162;20.538;2022-08-05T13:35:19;820.00;1024.00
55151;DHT22;41041;43.162;20.538;2022-08-05T13:41:42;820.10;998.40
55151;DHT22;41041;43.162;20.538;2022-08-05T13:48:03;844.80;998.40
55151;DHT22;41041;43.162;20.538;2022-08-05T13:53:52;844.80;998.40
55151;DHT22;41041;43.162;20.538;2022-08-05T13:56:18;845.30;998.40
55151;DHT22;41041;43.162;20.538;2022-08-05T13:58:43;845.60;1024.00
55151;DHT22;41041;43.162;20.538;2022-08-05T14:01:09;845.30;998.40
55151;DHT22;41041;43.162;20.538;2022-08-05T14:03:35;845.60;972.80
55151;DHT22;41041;43.162;20.538;2022-08-05T14:06:00;870.60;947.20
55151;DHT22;41041;43.162;20.538;2022-08-05T14:08:26;870.60;921.60
55151;DHT22;41041;43.162;20.538;2022-08-05T14:10:54;871.00;896.00
55151;DHT22;41041;43.162;20.538;2022-08-05T14:16:48;871.10;870.40
55151;DHT22;41041;43.162;20.538;2022-08-05T14:22:38;896.20;896.00
55151;DHT22;41041;43.162;20.538;2022-08-05T14:25:04;871.00;896.00
55151;DHT22;41041;43.162;20.538;2022-08-05T14:27:34;871.00;947.20
55151;DHT22;41041;43.162;20.538;2022-08-05T14:33:22;870.90;921.60
55151;DHT22;41041;43.162;20.538;2022-08-05T14:39:10;871.20;896.00
55151;DHT22;41041;43.162;20.538;2022-08-05T14:41:36;871.30;844.80
55151;DHT22;41041;43.162;20.538;2022-08-05T14:44:02;896.40;870.40
55151;DHT22;41041;43.162;20.538;2022-08-05T14:46:32;871.30;896.00
55151;DHT22;41041;43.162;20.538;2022-08-05T14:49:00;871.00;896.00
55151;DHT22;41041;43.162;20.538;2022-08-05T14:51:26;871.00;870.40
55151;DHT22;41041;43.162;20.538;2022-08-05T14:53:58;871.10;870.40
55151;DHT22;41041;43.162;20.538;2022-08-05T14:59:46;896.40;870.40
55151;DHT22;41041;43.162;20.538;2022-08-05T15:05:37;896.40;870.40
55151;DHT22;41041;43.162;20.538;2022-08-05T15:11:25;871.10;921.60
55151;DHT22;41041;43.162;20.538;2022-08-05T15:13:50;871.00;896.00
55151;DHT22;41041;43.162;20.538;2022-08-05T15:16:16;871.10;896.00
55151;DHT22;41041;43.162;20.538;2022-08-05T15:18:44;896.10;896.00
55151;DHT22;41041;43.162;20.538;2022-08-05T15:21:10;896.50;844.80
55151;DHT22;41041;43.162;20.538;2022-08-05T15:23:36;896.70;870.40
55151;DHT22;41041;43.162;20.538;2022-08-05T15:26:05;896.80;844.80
55151;DHT22;41041;43.162;20.538;2022-08-05T15:28:31;896.60;870.40
55151;DHT22;41041;43.162;20.538;2022-08-05T15:33:56;896.80;844.80
55151;DHT22;41041;43.162;20.538;2022-08-05T15:39:46;896.70;844.80
55151;DHT22;41041;43.162;20.538;2022-08-05T15:42:21;921.70;896.00
55151;DHT22;41041;43.162;20.538;2022-08-05T15:44:47;896.80;844.80
55151;DHT22;41041;43.162;20.538;2022-08-05T15:50:36;896.10;870.40
55151;DHT22;41041;43.162;20.538;2022-08-05T15:56:29;871.20;896.00
55151;DHT22;41041;43.162;20.538;2022-08-05T15:58:57;896.20;896.00
55151;DHT22;41041;43.162;20.538;2022-08-05T16:07:50;896.60;870.40
55151;DHT22;41041;43.162;20.538;2022-08-05T16:20:18;871.30;921.60
55151;DHT22;41041;43.162;20.538;2022-08-05T16:26:29;870.80;947.20
55151;DHT22;41041;43.162;20.538;2022-08-05T16:32:21;871.20;921.60
55151;DHT22;41041;43.162;20.538;2022-08-05T16:38:15;871.20;921.60
55151;DHT22;41041;43.162;20.538;2022-08-05T16:40:48;896.00;921.60
55151;DHT22;41041;43.162;20.538;2022-08-05T16:43:19;896.20;921.60
55151;DHT22;41041;43.162;20.538;2022-08-05T16:56:47;921.80;921.60
55151;DHT22;41041;43.162;20.538;2022-08-05T16:59:13;921.90;921.60
55151;DHT22;41041;43.162;20.538;2022-08-05T17:01:39;922.20;921.60
55151;DHT22;41041;43.162;20.538;2022-08-05T17:04:05;922.00;896.00
55151;DHT22;41041;43.162;20.538;2022-08-05T17:06:31;921.80;921.60
55151;DHT22;41041;43.162;20.538;2022-08-05T17:08:58;922.00;921.60
55151;DHT22;41041;43.162;20.538;2022-08-05T17:14:48;921.70;921.60
55151;DHT22;41041;43.162;20.538;2022-08-05T17:17:14;921.60;921.60
55151;DHT22;41041;43.162;20.538;2022-08-05T17:19:40;896.90;896.00
55151;DHT22;41041;43.162;20.538;2022-08-05T17:22:08;896.70;921.60
55151;DHT22;41041;43.162;20.538;2022-08-05T17:24:33;896.40;921.60
55151;DHT22;41041;43.162;20.538;2022-08-05T17:27:01;896.10;921.60
55151;DHT22;41041;43.162;20.538;2022-08-05T17:29:27;871.20;947.20
55151;DHT22;41041;43.162;20.538;2022-08-05T17:31:53;871.10;972.80
55151;DHT22;41041;43.162;20.538;2022-08-05T17:34:19;870.80;972.80
55151;DHT22;41041;43.162;20.538;2022-08-05T17:36:45;845.70;998.40
55151;DHT22;41041;43.162;20.538;2022-08-05T17:39:10;845.10;1049.60
55151;DHT22;41041;43.162;20.538;2022-08-05T17:41:37;820.00;1024.00
55151;DHT22;41041;43.162;20.538;2022-08-05T17:44:03;819.70;1049.60
55151;DHT22;41041;43.162;20.538;2022-08-05T17:46:29;819.60;1049.60
55151;DHT22;41041;43.162;20.538;2022-08-05T17:48:56;819.50;1075.20
55151;DHT22;41041;43.162;20.538;2022-08-05T17:54:44;794.20;1100.80
55151;DHT22;41041;43.162;20.538;2022-08-05T17:57:10;793.90;1100.80
55151;DHT22;41041;43.162;20.538;2022-08-05T17:59:36;793.80;1126.40
55151;DHT22;41041;43.162;20.538;2022-08-05T18:02:04;768.80;1126.40
55151;DHT22;41041;43.162;20.538;2022-08-05T18:04:30;768.60;1177.60
55151;DHT22;41041;43.162;20.538;2022-08-05T18:06:56;768.30;1177.60
55151;DHT22;41041;43.162;20.538;2022-08-05T18:09:22;768.00;1177.60
55151;DHT22;41041;43.162;20.538;2022-08-05T18:11:48;743.20;1203.20
55151;DHT22;41041;43.162;20.538;2022-08-05T18:14:14;743.00;1203.20
55151;DHT22;41041;43.162;20.538;2022-08-05T18:16:40;743.00;1228.80
55151;DHT22;41041;43.162;20.538;2022-08-05T18:19:06;742.90;1203.20
55151;DHT22;41041;43.162;20.538;2022-08-05T18:24:54;742.50;1228.80
55151;DHT22;41041;43.162;20.538;2022-08-05T18:30:46;717.40;1305.60
55151;DHT22;41041;43.162;20.538;2022-08-05T18:33:12;717.30;1305.60
55151;DHT22;41041;43.162;20.538;2022-08-05T18:35:38;717.20;1331.20
55151;DHT22;41041;43.162;20.538;2022-08-05T18:38:04;717.10;1305.60
55151;DHT22;41041;43.162;20.538;2022-08-05T18:40:30;717.20;1305.60
55151;DHT22;41041;43.162;20.538;2022-08-05T18:42:56;717.10;1280.00
55151;DHT22;41041;43.162;20.538;2022-08-05T18:45:22;717.00;1331.20
55151;DHT22;41041;43.162;20.538;2022-08-05T18:47:48;716.90;1305.60
55151;DHT22;41041;43.162;20.538;2022-08-05T18:50:14;717.00;1305.60
55151;DHT22;41041;43.162;20.538;2022-08-05T18:52:59;717.10;1305.60
55151;DHT22;41041;43.162;20.538;2022-08-05T18:55:24;717.00;1305.60
55151;DHT22;41041;43.162;20.538;2022-08-05T18:57:50;716.80;1305.60
55151;DHT22;41041;43.162;20.538;2022-08-05T19:00:19;716.80;1331.20
55151;DHT22;41041;43.162;20.538;2022-08-05T19:02:47;716.80;1331.20
55151;DHT22;41041;43.162;20.538;2022-08-05T19:05:13;716.80;1331.20
55151;DHT22;41041;43.162;20.538;2022-08-05T19:07:39;692.10;1305.60
55151;DHT22;41041;43.162;20.538;2022-08-05T19:10:05;691.80;1356.80
55151;DHT22;41041;43.162;20.538;2022-08-05T19:12:31;691.70;1356.80
55151;DHT22;41041;43.162;20.538;2022-08-05T19:14:58;691.70;1331.20